createdAt,value
2023-03-02T00:02:15.951Z,64.18
2023-03-02T00:04:59.635Z,64.78
2023-03-02T00:07:35.457Z,66.88
2023-03-02T00:10:06.249Z,66.07
2023-03-02T00:12:37.224Z,65.43
2023-03-02T00:17:53.022Z,66.68
2023-03-02T00:20:23.008Z,66.05
2023-03-02T00:22:53.018Z,65.88
2023-03-02T00:25:24.123Z,70.18
2023-03-02T00:30:25.351Z,65.70
2023-03-02T00:32:55.694Z,68.70
2023-03-02T00:35:25.725Z,69.07
2023-03-02T00:37:56.403Z,58.08
2023-03-02T00:40:49.860Z,66.13
2023-03-02T00:43:20.873Z,64.00
2023-03-02T00:46:00.024Z,69.78
2023-03-02T00:48:30.532Z,69.30
2023-03-02T00:51:04.293Z,63.88
2023-03-02T00:53:52.510Z,62.85
2023-03-02T00:56:40.886Z,61.97
2023-03-02T00:59:28.654Z,65.97
2023-03-02T01:02:11.692Z,66.72
2023-03-02T01:05:01.649Z,61.13
2023-03-02T01:07:31.940Z,62.63
2023-03-02T01:10:01.799Z,63.80
2023-03-02T01:12:31.654Z,57.80
2023-03-02T01:15:01.872Z,59.50
2023-03-02T01:20:32.555Z,56.13
2023-03-02T01:23:04.124Z,55.78
2023-03-02T01:25:35.276Z,54.85
2023-03-02T01:28:12.198Z,55.15
2023-03-02T01:30:42.534Z,51.90
2023-03-02T01:33:12.868Z,54.88
2023-03-02T01:36:03.653Z,56.88
2023-03-02T01:38:53.047Z,56.65
2023-03-02T01:41:25.060Z,51.65
2023-03-02T01:43:55.219Z,51.67
2023-03-02T01:46:28.695Z,51.92
2023-03-02T01:49:07.316Z,51.45
2023-03-02T01:51:59.944Z,52.60
2023-03-02T01:54:52.344Z,49.72
2023-03-02T01:57:28.195Z,53.67
2023-03-02T02:00:04.320Z,47.42
2023-03-02T02:02:44.163Z,47.88
2023-03-02T02:05:22.022Z,45.08
2023-03-02T02:07:52.264Z,44.65
2023-03-02T02:10:42.272Z,45.47
2023-03-02T02:15:59.382Z,45.92
2023-03-02T02:18:47.495Z,44.10
2023-03-02T02:21:35.739Z,44.70
2023-03-02T02:24:08.595Z,40.97
2023-03-02T02:26:59.598Z,41.55
2023-03-02T02:29:53.371Z,40.23
2023-03-02T02:32:37.901Z,42.17
2023-03-02T02:35:22.332Z,40.60
2023-03-02T02:38:07.130Z,41.72
2023-03-02T02:40:53.088Z,43.17
2023-03-02T02:43:29.003Z,41.55
2023-03-02T02:48:48.510Z,39.20
2023-03-02T02:51:25.915Z,37.90
2023-03-02T02:54:01.277Z,36.97
2023-03-02T02:56:39.336Z,36.67
2023-03-02T02:59:37.931Z,36.55
2023-03-02T03:02:08.503Z,35.65
2023-03-02T03:04:38.976Z,38.08
2023-03-02T03:10:15.169Z,34.58
2023-03-02T03:12:45.831Z,35.00
2023-03-02T03:20:48.907Z,32.20
2023-03-02T03:23:19.099Z,32.60
2023-03-02T03:25:49.535Z,31.83
2023-03-02T03:28:20.393Z,30.98
2023-03-02T03:30:51.189Z,31.23
2023-03-02T03:33:21.971Z,32.63
2023-03-02T03:36:11.146Z,29.77
2023-03-02T03:38:43.204Z,29.65
2023-03-02T03:43:59.941Z,31.05
2023-03-02T03:46:32.485Z,28.85
2023-03-02T03:49:03.856Z,28.60
2023-03-02T03:54:24.585Z,27.83
2023-03-02T03:56:54.875Z,27.95
2023-03-02T03:59:27.357Z,29.17
2023-03-02T04:04:49.517Z,29.65
2023-03-02T04:07:21.833Z,29.10
2023-03-02T04:09:52.014Z,30.53
2023-03-02T04:12:22.293Z,30.48
2023-03-02T04:14:55.780Z,29.52
2023-03-02T13:47:36.474Z,51.42
2023-03-02T13:50:10.670Z,45.45
2023-03-02T13:52:43.250Z,50.03
2023-03-02T13:55:18.899Z,44.53
2023-03-02T13:57:51.511Z,44.22
2023-03-02T14:00:37.657Z,44.53
2023-03-02T14:03:33.365Z,46.15
2023-03-02T14:06:03.461Z,51.08
2023-03-02T14:08:33.532Z,49.00
2023-03-02T14:11:05.445Z,57.30
2023-03-02T14:13:49.300Z,61.28
2023-03-02T14:16:19.794Z,51.80
2023-03-02T14:21:38.648Z,51.78
2023-03-02T14:24:09.338Z,52.75
2023-03-02T14:26:52.526Z,48.83
2023-03-02T14:29:28.290Z,48.65
2023-03-02T14:32:10.804Z,48.25
2023-03-02T14:34:41.069Z,44.90
2023-03-02T14:37:17.381Z,50.55
2023-03-02T14:39:55.508Z,39.28
2023-03-02T14:42:26.336Z,46.55
2023-03-02T14:44:56.490Z,39.00
2023-03-02T14:47:26.731Z,46.92
2023-03-02T14:49:57.627Z,34.50
2023-03-02T14:53:00.200Z,49.50
2023-03-02T14:55:35.126Z,41.53
2023-03-02T14:58:06.613Z,39.38
2023-03-02T15:03:06.549Z,42.60
2023-03-02T15:05:36.712Z,43.25
2023-03-02T15:08:06.747Z,40.05
2023-03-02T15:10:36.969Z,42.90
2023-03-02T15:13:07.048Z,39.03
2023-03-02T15:15:37.000Z,35.92
2023-03-02T15:18:06.992Z,33.22
2023-03-02T15:20:37.638Z,31.23
2023-03-02T15:23:07.914Z,32.22
2023-03-02T15:25:38.131Z,34.50
2023-03-02T15:28:08.247Z,35.92
2023-03-02T15:30:38.158Z,31.73
2023-03-02T15:33:07.999Z,32.15
2023-03-02T15:35:45.231Z,36.33
2023-03-02T15:38:15.341Z,33.72
2023-03-02T15:41:16.957Z,32.75
2023-03-02T15:43:47.684Z,37.10
2023-03-02T15:46:17.960Z,35.05
2023-03-02T15:48:48.329Z,33.22
2023-03-02T15:54:04.264Z,31.42
2023-03-02T15:56:43.695Z,33.85
2023-03-02T15:59:14.935Z,32.08
2023-03-02T16:01:45.054Z,30.67
2023-03-02T16:04:17.977Z,35.60
2023-03-02T16:06:51.387Z,34.58
2023-03-02T16:09:39.639Z,37.83
2023-03-02T16:12:09.848Z,36.10
2023-03-02T16:14:40.780Z,41.95
2023-03-02T16:17:11.052Z,41.10
2023-03-02T16:19:41.003Z,37.08
2023-03-02T16:22:10.930Z,38.28
2023-03-02T16:24:41.896Z,36.25
2023-03-02T16:29:57.095Z,41.40
2023-03-02T16:32:27.319Z,38.90
2023-03-02T16:35:00.076Z,35.85
2023-03-02T16:37:30.261Z,41.35
2023-03-02T16:40:02.017Z,36.53
2023-03-02T16:42:32.637Z,38.58
2023-03-02T16:45:05.700Z,43.10
2023-03-02T16:47:35.812Z,38.95
2023-03-02T16:50:06.958Z,37.95
2023-03-02T16:55:12.264Z,40.60
2023-03-02T16:57:43.109Z,40.28
2023-03-02T17:00:35.312Z,37.70
2023-03-02T17:03:05.834Z,38.08
2023-03-02T17:05:35.924Z,37.23
2023-03-02T17:08:07.441Z,37.83
2023-03-02T17:10:37.453Z,38.08
2023-03-02T17:13:07.566Z,40.08
2023-03-02T17:15:37.839Z,33.72
2023-03-02T17:18:07.742Z,34.42
2023-03-02T17:20:38.235Z,37.45
2023-03-02T17:23:08.508Z,38.53
2023-03-02T17:25:38.624Z,40.00
2023-03-02T17:28:09.616Z,38.95
2023-03-02T17:30:39.830Z,39.60
2023-03-02T17:33:11.264Z,37.58
2023-03-02T17:35:59.329Z,38.75
2023-03-02T17:38:29.692Z,42.53
2023-03-02T17:41:05.492Z,44.17
2023-03-02T17:43:40.866Z,40.88
2023-03-02T17:46:16.542Z,40.53
2023-03-02T17:48:46.665Z,44.80
2023-03-02T17:51:17.769Z,43.05
2023-03-02T17:53:51.594Z,42.40
2023-03-02T17:56:24.386Z,47.03
2023-03-02T17:58:59.262Z,45.40
2023-03-02T18:01:30.596Z,45.15
2023-03-02T18:04:01.108Z,40.53
2023-03-02T18:06:31.603Z,50.97
2023-03-02T18:09:02.769Z,43.67
2023-03-02T18:11:32.843Z,44.90
2023-03-02T18:14:02.847Z,47.17
2023-03-02T18:16:33.136Z,46.00
2023-03-02T18:19:03.715Z,48.13
2023-03-02T18:21:33.958Z,42.17
2023-03-02T18:24:04.493Z,40.53
2023-03-02T18:26:34.392Z,44.20
2023-03-02T18:29:04.635Z,39.45
2023-03-02T18:31:36.824Z,39.03
2023-03-02T18:34:07.047Z,41.20
2023-03-02T18:36:37.092Z,39.63
2023-03-02T18:39:06.974Z,38.78
2023-03-02T18:41:37.153Z,37.42
2023-03-02T18:44:07.120Z,36.08
2023-03-02T18:46:37.339Z,34.88
2023-03-02T18:49:07.616Z,42.97
2023-03-02T18:51:48.426Z,36.40
2023-03-02T18:54:33.115Z,40.05
2023-03-02T18:57:21.719Z,32.30
2023-03-02T19:00:17.429Z,41.22
2023-03-02T19:02:48.806Z,40.35
2023-03-02T19:07:52.237Z,37.00
2023-03-02T19:10:22.684Z,38.72
2023-03-02T19:12:52.756Z,35.78
2023-03-02T19:15:22.773Z,34.38
2023-03-02T19:17:54.008Z,33.67
2023-03-02T19:23:09.607Z,34.20
2023-03-02T19:25:40.721Z,32.42
2023-03-02T19:30:42.201Z,30.58
2023-03-02T19:33:12.521Z,29.88
2023-03-02T19:35:43.946Z,30.40
2023-03-02T19:38:14.918Z,34.28
2023-03-02T19:41:04.182Z,32.08
2023-03-02T19:43:35.219Z,31.25
2023-03-02T19:46:23.585Z,34.83
2023-03-02T19:48:53.601Z,36.00
2023-03-02T19:51:23.454Z,34.13
2023-03-02T19:53:53.539Z,30.25
2023-03-02T19:56:23.639Z,35.05
2023-03-02T19:59:15.339Z,33.33
2023-03-02T20:01:46.769Z,30.33
2023-03-02T20:04:16.818Z,33.25
2023-03-02T20:06:47.640Z,33.55
2023-03-02T20:09:21.775Z,36.28
2023-03-02T20:12:10.279Z,31.90
2023-03-02T20:14:42.805Z,36.97
2023-03-02T20:17:12.990Z,30.48
2023-03-02T20:19:43.004Z,33.17
2023-03-02T20:22:13.564Z,34.22
2023-03-02T20:24:44.999Z,33.42
2023-03-02T20:29:46.220Z,32.08
2023-03-02T20:32:17.958Z,29.27
2023-03-02T20:34:48.046Z,29.02
2023-03-02T20:37:18.535Z,31.40
2023-03-02T20:40:09.441Z,30.80
2023-03-02T20:42:40.206Z,34.78
2023-03-02T20:45:11.989Z,32.00
2023-03-02T20:47:42.548Z,32.85
2023-03-02T20:50:17.707Z,35.72
2023-03-02T20:53:07.610Z,32.85
2023-03-02T20:55:38.078Z,27.42
2023-03-02T20:58:09.121Z,33.60
2023-03-02T21:00:39.817Z,36.70
2023-03-02T21:03:10.571Z,31.47
2023-03-02T21:05:42.800Z,35.65
2023-03-02T21:08:16.900Z,30.55
2023-03-02T21:10:47.418Z,31.58
2023-03-02T21:13:17.450Z,36.40
2023-03-02T21:15:48.811Z,33.25
2023-03-02T21:18:19.091Z,42.72
2023-03-02T21:20:49.015Z,37.88
2023-03-02T21:23:18.959Z,35.35
2023-03-02T21:25:49.488Z,35.95
2023-03-02T21:31:05.305Z,32.08
2023-03-02T21:33:36.144Z,31.70
2023-03-02T21:36:06.815Z,38.08
2023-03-02T21:38:36.877Z,34.40
2023-03-02T21:41:06.864Z,35.58
2023-03-02T21:43:38.123Z,35.88
2023-03-02T21:48:38.020Z,36.47
2023-03-02T21:51:09.661Z,38.83
2023-03-02T21:53:39.746Z,37.92
2023-03-02T21:56:10.946Z,39.38
2023-03-02T21:58:42.104Z,35.38
2023-03-02T22:01:12.936Z,37.92
2023-03-02T22:03:47.008Z,38.00
2023-03-02T22:06:29.280Z,42.70
2023-03-02T22:09:04.177Z,40.22
2023-03-02T22:14:24.098Z,39.35
2023-03-02T22:16:54.314Z,45.15
2023-03-02T22:19:32.861Z,37.20
2023-03-02T22:22:06.009Z,41.65
2023-03-02T22:24:56.946Z,37.70
2023-03-02T22:27:32.397Z,37.22
2023-03-02T22:30:05.404Z,39.78
2023-03-02T22:32:40.899Z,43.97
2023-03-02T22:35:27.202Z,40.00
2023-03-02T22:38:14.221Z,43.20
2023-03-02T22:40:45.151Z,42.72
2023-03-02T22:43:18.353Z,45.33
2023-03-02T22:45:48.489Z,44.72
2023-03-02T22:48:23.760Z,42.50
2023-03-02T22:52:55.969Z,46.90
2023-03-02T22:55:42.160Z,44.03
2023-03-02T22:58:39.933Z,56.63
2023-03-02T23:01:22.354Z,53.25
2023-03-02T23:04:16.629Z,50.70
2023-03-02T23:06:58.223Z,50.70
2023-03-02T23:09:33.888Z,52.47
2023-03-02T23:12:23.201Z,54.30
2023-03-02T23:15:01.608Z,49.45
2023-03-02T23:17:34.473Z,49.72
2023-03-02T23:20:06.304Z,46.38
2023-03-02T23:22:36.652Z,44.47
2023-03-02T23:25:07.915Z,49.55
2023-03-02T23:30:08.417Z,47.75
2023-03-02T23:32:38.677Z,48.57
2023-03-02T23:35:08.954Z,47.67
2023-03-02T23:37:39.072Z,46.45
2023-03-02T23:40:10.122Z,49.78
2023-03-02T23:42:40.753Z,46.03
2023-03-02T23:45:12.383Z,50.05
2023-03-02T23:47:42.440Z,50.88
2023-03-02T23:50:13.535Z,45.97
2023-03-02T23:55:13.607Z,198.65
2023-03-02T23:57:43.669Z,281.98
